sensor_id;sensor_type;location;lat;lon;timestamp;temperature;humidity
36372;DHT22;22398;51.346;12.372;2023-02-28T00:01:00;1.30;92.60
36372;DHT22;22398;51.346;12.372;2023-02-28T00:06:05;1.20;92.60
36372;DHT22;22398;51.346;12.372;2023-02-28T00:11:10;1.30;92.70
36372;DHT22;22398;51.346;12.372;2023-02-28T00:16:17;1.30;92.70
36372;DHT22;22398;51.346;12.372;2023-02-28T00:21:21;1.30;92.70
36372;DHT22;22398;51.346;12.372;2023-02-28T00:26:24;1.20;92.70
36372;DHT22;22398;51.346;12.372;2023-02-28T00:31:29;1.20;92.80
36372;DHT22;22398;51.346;12.372;2023-02-28T00:36:33;1.20;92.90
36372;DHT22;22398;51.346;12.372;2023-02-28T00:41:38;1.20;93.00
36372;DHT22;22398;51.346;12.372;2023-02-28T00:46:43;1.20;93.10
36372;DHT22;22398;51.346;12.372;2023-02-28T00:51:47;1.20;93.10
36372;DHT22;22398;51.346;12.372;2023-02-28T00:56:50;1.20;93.20
36372;DHT22;22398;51.346;12.372;2023-02-28T01:01:55;1.20;93.20
36372;DHT22;22398;51.346;12.372;2023-02-28T01:06:58;1.10;93.30
36372;DHT22;22398;51.346;12.372;2023-02-28T01:12:03;1.10;93.40
36372;DHT22;22398;51.346;12.372;2023-02-28T01:17:09;1.10;93.40
36372;DHT22;22398;51.346;12.372;2023-02-28T01:22:12;1.20;93.50
36372;DHT22;22398;51.346;12.372;2023-02-28T01:27:16;1.20;93.60
36372;DHT22;22398;51.346;12.372;2023-02-28T01:32:22;1.20;93.70
36372;DHT22;22398;51.346;12.372;2023-02-28T01:37:25;1.20;93.70
36372;DHT22;22398;51.346;12.372;2023-02-28T01:42:28;1.10;93.70
36372;DHT22;22398;51.346;12.372;2023-02-28T01:47:36;1.10;93.70
36372;DHT22;22398;51.346;12.372;2023-02-28T01:52:41;1.10;93.80
36372;DHT22;22398;51.346;12.372;2023-02-28T01:57:49;1.10;93.90
36372;DHT22;22398;51.346;12.372;2023-02-28T02:02:58;1.00;93.90
36372;DHT22;22398;51.346;12.372;2023-02-28T02:08:04;1.00;94.00
36372;DHT22;22398;51.346;12.372;2023-02-28T02:13:30;1.00;94.10
36372;DHT22;22398;51.346;12.372;2023-02-28T02:18:42;0.90;94.20
36372;DHT22;22398;51.346;12.372;2023-02-28T02:24:26;0.90;94.20
36372;DHT22;22398;51.346;12.372;2023-02-28T02:35:12;0.80;94.30
36372;DHT22;22398;51.346;12.372;2023-02-28T02:40:20;0.80;94.40
36372;DHT22;22398;51.346;12.372;2023-02-28T02:45:27;0.80;94.50
36372;DHT22;22398;51.346;12.372;2023-02-28T02:50:42;0.70;94.50
36372;DHT22;22398;51.346;12.372;2023-02-28T02:55:48;0.50;94.50
36372;DHT22;22398;51.346;12.372;2023-02-28T03:00:58;0.20;94.50
36372;DHT22;22398;51.346;12.372;2023-02-28T03:06:04;0.10;94.70
36372;DHT22;22398;51.346;12.372;2023-02-28T03:11:12;-0.10;94.90
36372;DHT22;22398;51.346;12.372;2023-02-28T03:16:33;-0.20;95.10
36372;DHT22;22398;51.346;12.372;2023-02-28T03:21:43;-0.30;95.40
36372;DHT22;22398;51.346;12.372;2023-02-28T03:26:54;-0.40;95.60
36372;DHT22;22398;51.346;12.372;2023-02-28T03:32:08;-0.50;95.80
36372;DHT22;22398;51.346;12.372;2023-02-28T03:37:20;-0.50;96.00
36372;DHT22;22398;51.346;12.372;2023-02-28T03:42:27;-0.60;96.30
36372;DHT22;22398;51.346;12.372;2023-02-28T03:47:35;-0.50;96.50
36372;DHT22;22398;51.346;12.372;2023-02-28T03:52:45;-0.60;96.60
36372;DHT22;22398;51.346;12.372;2023-02-28T03:57:55;-0.70;96.90
36372;DHT22;22398;51.346;12.372;2023-02-28T04:03:00;-0.70;97.10
36372;DHT22;22398;51.346;12.372;2023-02-28T04:13:21;1.50;98.00
36372;DHT22;22398;51.346;12.372;2023-02-28T04:18:25;-0.20;97.70
36372;DHT22;22398;51.346;12.372;2023-02-28T04:23:28;-0.10;97.80
36372;DHT22;22398;51.346;12.372;2023-02-28T04:28:33;0.00;97.70
36372;DHT22;22398;51.346;12.372;2023-02-28T04:33:36;0.10;97.70
36372;DHT22;22398;51.346;12.372;2023-02-28T04:38:40;0.10;97.70
36372;DHT22;22398;51.346;12.372;2023-02-28T04:43:45;0.10;97.60
36372;DHT22;22398;51.346;12.372;2023-02-28T04:48:48;0.00;97.50
36372;DHT22;22398;51.346;12.372;2023-02-28T04:53:52;-0.20;97.40
36372;DHT22;22398;51.346;12.372;2023-02-28T04:58:57;-0.30;97.50
36372;DHT22;22398;51.346;12.372;2023-02-28T05:04:03;-0.40;97.70
36372;DHT22;22398;51.346;12.372;2023-02-28T05:09:07;-0.30;97.80
36372;DHT22;22398;51.346;12.372;2023-02-28T05:14:13;-0.20;97.80
36372;DHT22;22398;51.346;12.372;2023-02-28T05:19:17;-0.20;97.80
36372;DHT22;22398;51.346;12.372;2023-02-28T05:24:21;-0.20;97.80
36372;DHT22;22398;51.346;12.372;2023-02-28T05:29:27;-0.20;97.80
36372;DHT22;22398;51.346;12.372;2023-02-28T05:34:30;-0.20;97.70
36372;DHT22;22398;51.346;12.372;2023-02-28T05:39:34;-0.20;97.70
36372;DHT22;22398;51.346;12.372;2023-02-28T05:44:39;-0.30;97.60
36372;DHT22;22398;51.346;12.372;2023-02-28T05:49:42;-0.40;97.50
36372;DHT22;22398;51.346;12.372;2023-02-28T05:54:46;-0.50;97.50
36372;DHT22;22398;51.346;12.372;2023-02-28T05:59:51;-0.50;97.70
36372;DHT22;22398;51.346;12.372;2023-02-28T06:04:54;-0.60;97.70
36372;DHT22;22398;51.346;12.372;2023-02-28T06:09:57;-0.60;97.70
36372;DHT22;22398;51.346;12.372;2023-02-28T06:15:03;-0.70;97.60
36372;DHT22;22398;51.346;12.372;2023-02-28T06:20:07;-0.80;97.80
36372;DHT22;22398;51.346;12.372;2023-02-28T06:25:11;-0.90;97.80
36372;DHT22;22398;51.346;12.372;2023-02-28T06:30:16;-1.00;97.90
36372;DHT22;22398;51.346;12.372;2023-02-28T06:35:19;-1.00;98.10
36372;DHT22;22398;51.346;12.372;2023-02-28T06:40:23;-0.90;98.20
36372;DHT22;22398;51.346;12.372;2023-02-28T06:45:28;-0.90;98.30
36372;DHT22;22398;51.346;12.372;2023-02-28T06:50:31;-0.70;98.40
36372;DHT22;22398;51.346;12.372;2023-02-28T06:55:38;-0.60;98.50
36372;DHT22;22398;51.346;12.372;2023-02-28T07:00:43;-0.50;98.50
36372;DHT22;22398;51.346;12.372;2023-02-28T07:05:46;-0.30;98.50
36372;DHT22;22398;51.346;12.372;2023-02-28T07:10:52;-0.20;98.40
36372;DHT22;22398;51.346;12.372;2023-02-28T07:15:59;0.00;98.30
36372;DHT22;22398;51.346;12.372;2023-02-28T07:21:03;0.10;98.20
36372;DHT22;22398;51.346;12.372;2023-02-28T07:26:10;0.20;98.10
36372;DHT22;22398;51.346;12.372;2023-02-28T07:31:17;0.40;97.90
36372;DHT22;22398;51.346;12.372;2023-02-28T07:36:20;0.60;98.00
36372;DHT22;22398;51.346;12.372;2023-02-28T07:41:24;0.80;97.80
36372;DHT22;22398;51.346;12.372;2023-02-28T07:46:31;1.00;97.30
36372;DHT22;22398;51.346;12.372;2023-02-28T07:51:38;1.20;97.10
36372;DHT22;22398;51.346;12.372;2023-02-28T07:56:41;1.30;96.70
36372;DHT22;22398;51.346;12.372;2023-02-28T08:01:46;1.50;96.40
36372;DHT22;22398;51.346;12.372;2023-02-28T08:06:52;1.80;96.00
36372;DHT22;22398;51.346;12.372;2023-02-28T08:11:55;1.90;95.40
36372;DHT22;22398;51.346;12.372;2023-02-28T08:17:00;2.10;94.90
36372;DHT22;22398;51.346;12.372;2023-02-28T08:22:03;2.20;94.40
36372;DHT22;22398;51.346;12.372;2023-02-28T08:27:06;2.40;93.90
36372;DHT22;22398;51.346;12.372;2023-02-28T08:32:11;2.60;93.30
36372;DHT22;22398;51.346;12.372;2023-02-28T08:37:30;2.70;92.80
36372;DHT22;22398;51.346;12.372;2023-02-28T08:42:33;2.80;92.20
36372;DHT22;22398;51.346;12.372;2023-02-28T08:47:38;3.00;91.80
36372;DHT22;22398;51.346;12.372;2023-02-28T08:52:42;3.20;91.30
36372;DHT22;22398;51.346;12.372;2023-02-28T08:57:46;3.50;90.60
36372;DHT22;22398;51.346;12.372;2023-02-28T09:02:50;3.40;90.00
36372;DHT22;22398;51.346;12.372;2023-02-28T09:07:54;3.60;88.80
36372;DHT22;22398;51.346;12.372;2023-02-28T09:12:57;3.70;87.80
36372;DHT22;22398;51.346;12.372;2023-02-28T09:18:02;3.70;86.60
36372;DHT22;22398;51.346;12.372;2023-02-28T09:23:06;3.80;85.90
36372;DHT22;22398;51.346;12.372;2023-02-28T09:28:09;4.00;85.00
36372;DHT22;22398;51.346;12.372;2023-02-28T09:33:15;4.00;83.80
36372;DHT22;22398;51.346;12.372;2023-02-28T09:38:19;4.20;83.40
36372;DHT22;22398;51.346;12.372;2023-02-28T09:43:25;4.40;82.60
36372;DHT22;22398;51.346;12.372;2023-02-28T09:48:33;4.80;82.00
36372;DHT22;22398;51.346;12.372;2023-02-28T09:53:41;4.90;80.60
36372;DHT22;22398;51.346;12.372;2023-02-28T09:58:54;4.90;79.60
36372;DHT22;22398;51.346;12.372;2023-02-28T10:04:05;4.90;78.80
36372;DHT22;22398;51.346;12.372;2023-02-28T10:09:15;4.70;78.00
36372;DHT22;22398;51.346;12.372;2023-02-28T10:14:21;4.40;77.40
36372;DHT22;22398;51.346;12.372;2023-02-28T10:19:28;4.10;76.80
36372;DHT22;22398;51.346;12.372;2023-02-28T10:24:39;4.20;76.80
36372;DHT22;22398;51.346;12.372;2023-02-28T10:29:44;4.10;76.20
36372;DHT22;22398;51.346;12.372;2023-02-28T10:34:52;4.30;76.40
36372;DHT22;22398;51.346;12.372;2023-02-28T10:39:58;4.70;76.10
36372;DHT22;22398;51.346;12.372;2023-02-28T10:45:12;4.90;75.90
36372;DHT22;22398;51.346;12.372;2023-02-28T10:50:35;5.10;75.20
36372;DHT22;22398;51.346;12.372;2023-02-28T10:55:39;5.00;74.50
36372;DHT22;22398;51.346;12.372;2023-02-28T11:00:43;5.10;74.00
36372;DHT22;22398;51.346;12.372;2023-02-28T11:05:48;4.90;73.50
36372;DHT22;22398;51.346;12.372;2023-02-28T11:10:57;5.00;73.70
36372;DHT22;22398;51.346;12.372;2023-02-28T11:16:03;5.10;73.30
36372;DHT22;22398;51.346;12.372;2023-02-28T11:21:09;5.20;73.00
36372;DHT22;22398;51.346;12.372;2023-02-28T11:26:37;5.10;72.80
36372;DHT22;22398;51.346;12.372;2023-02-28T11:31:41;5.20;72.60
36372;DHT22;22398;51.346;12.372;2023-02-28T11:36:46;5.30;72.70
36372;DHT22;22398;51.346;12.372;2023-02-28T11:42:01;5.50;72.40
36372;DHT22;22398;51.346;12.372;2023-02-28T11:47:12;5.60;72.00
36372;DHT22;22398;51.346;12.372;2023-02-28T11:52:36;5.60;71.90
36372;DHT22;22398;51.346;12.372;2023-02-28T12:03:24;5.70;71.60
36372;DHT22;22398;51.346;12.372;2023-02-28T12:08:44;5.50;71.40
36372;DHT22;22398;51.346;12.372;2023-02-28T12:13:58;5.50;71.20
36372;DHT22;22398;51.346;12.372;2023-02-28T12:19:18;5.50;71.10
36372;DHT22;22398;51.346;12.372;2023-02-28T12:24:39;5.70;70.90
36372;DHT22;22398;51.346;12.372;2023-02-28T12:29:50;5.70;70.80
36372;DHT22;22398;51.346;12.372;2023-02-28T12:34:58;5.70;70.60
36372;DHT22;22398;51.346;12.372;2023-02-28T12:40:11;5.50;70.30
36372;DHT22;22398;51.346;12.372;2023-02-28T12:45:18;5.50;70.50
36372;DHT22;22398;51.346;12.372;2023-02-28T12:50:23;5.70;70.50
36372;DHT22;22398;51.346;12.372;2023-02-28T12:55:33;5.70;70.40
36372;DHT22;22398;51.346;12.372;2023-02-28T13:00:49;5.80;70.20
36372;DHT22;22398;51.346;12.372;2023-02-28T13:06:18;5.80;70.00
36372;DHT22;22398;51.346;12.372;2023-02-28T13:11:27;5.70;70.00
36372;DHT22;22398;51.346;12.372;2023-02-28T13:17:10;5.50;70.10
36372;DHT22;22398;51.346;12.372;2023-02-28T13:22:19;5.60;70.30
36372;DHT22;22398;51.346;12.372;2023-02-28T13:27:37;5.60;70.30
36372;DHT22;22398;51.346;12.372;2023-02-28T13:32:41;5.70;70.30
36372;DHT22;22398;51.346;12.372;2023-02-28T13:37:47;5.70;70.40
36372;DHT22;22398;51.346;12.372;2023-02-28T13:42:55;5.70;69.90
36372;DHT22;22398;51.346;12.372;2023-02-28T13:48:00;5.60;69.80
36372;DHT22;22398;51.346;12.372;2023-02-28T13:53:39;5.70;69.80
36372;DHT22;22398;51.346;12.372;2023-02-28T13:58:53;5.70;69.60
36372;DHT22;22398;51.346;12.372;2023-02-28T14:04:10;5.70;69.60
36372;DHT22;22398;51.346;12.372;2023-02-28T14:09:21;5.70;69.50
36372;DHT22;22398;51.346;12.372;2023-02-28T14:14:55;5.70;69.50
36372;DHT22;22398;51.346;12.372;2023-02-28T14:20:02;5.50;69.50
36372;DHT22;22398;51.346;12.372;2023-02-28T14:25:15;5.50;69.50
36372;DHT22;22398;51.346;12.372;2023-02-28T14:30:43;5.50;69.40
36372;DHT22;22398;51.346;12.372;2023-02-28T14:36:03;5.50;69.50
36372;DHT22;22398;51.346;12.372;2023-02-28T14:41:15;5.40;69.80
36372;DHT22;22398;51.346;12.372;2023-02-28T14:46:23;5.40;69.60
36372;DHT22;22398;51.346;12.372;2023-02-28T14:51:29;5.40;69.80
36372;DHT22;22398;51.346;12.372;2023-02-28T14:56:36;5.20;69.70
36372;DHT22;22398;51.346;12.372;2023-02-28T15:01:54;5.10;69.60
36372;DHT22;22398;51.346;12.372;2023-02-28T15:07:14;5.00;69.60
36372;DHT22;22398;51.346;12.372;2023-02-28T15:12:17;5.00;69.80
36372;DHT22;22398;51.346;12.372;2023-02-28T15:17:23;5.00;70.00
36372;DHT22;22398;51.346;12.372;2023-02-28T15:22:31;4.90;70.00
36372;DHT22;22398;51.346;12.372;2023-02-28T15:27:44;4.90;70.10
36372;DHT22;22398;51.346;12.372;2023-02-28T15:33:06;4.80;70.10
36372;DHT22;22398;51.346;12.372;2023-02-28T15:38:15;4.70;70.20
36372;DHT22;22398;51.346;12.372;2023-02-28T15:43:24;4.60;70.10
36372;DHT22;22398;51.346;12.372;2023-02-28T15:48:31;4.50;70.20
36372;DHT22;22398;51.346;12.372;2023-02-28T15:53:38;4.40;70.30
36372;DHT22;22398;51.346;12.372;2023-02-28T15:58:44;4.20;70.40
36372;DHT22;22398;51.346;12.372;2023-02-28T16:03:50;4.20;70.50
36372;DHT22;22398;51.346;12.372;2023-02-28T16:09:09;4.10;70.80
36372;DHT22;22398;51.346;12.372;2023-02-28T16:14:16;4.00;71.00
36372;DHT22;22398;51.346;12.372;2023-02-28T16:19:22;3.90;71.10
36372;DHT22;22398;51.346;12.372;2023-02-28T16:24:26;3.70;71.20
36372;DHT22;22398;51.346;12.372;2023-02-28T16:29:32;3.60;71.40
36372;DHT22;22398;51.346;12.372;2023-02-28T16:34:37;3.50;71.90
36372;DHT22;22398;51.346;12.372;2023-02-28T16:39:40;3.40;72.20
36372;DHT22;22398;51.346;12.372;2023-02-28T16:44:44;3.20;72.50
36372;DHT22;22398;51.346;12.372;2023-02-28T16:49:50;3.10;72.90
36372;DHT22;22398;51.346;12.372;2023-02-28T16:54:53;2.90;73.40
36372;DHT22;22398;51.346;12.372;2023-02-28T16:59:56;2.80;73.70
36372;DHT22;22398;51.346;12.372;2023-02-28T17:05:01;2.70;74.10
36372;DHT22;22398;51.346;12.372;2023-02-28T17:15:16;2.40;74.90
36372;DHT22;22398;51.346;12.372;2023-02-28T17:20:22;2.40;75.40
36372;DHT22;22398;51.346;12.372;2023-02-28T17:25:26;2.30;75.70
36372;DHT22;22398;51.346;12.372;2023-02-28T17:30:30;2.20;76.00
36372;DHT22;22398;51.346;12.372;2023-02-28T17:35:37;2.00;76.20
36372;DHT22;22398;51.346;12.372;2023-02-28T17:40:40;1.80;76.60
36372;DHT22;22398;51.346;12.372;2023-02-28T17:45:43;1.70;77.20
36372;DHT22;22398;51.346;12.372;2023-02-28T17:50:48;1.50;77.40
36372;DHT22;22398;51.346;12.372;2023-02-28T17:55:51;1.40;77.90
36372;DHT22;22398;51.346;12.372;2023-02-28T18:00:55;1.30;78.40
36372;DHT22;22398;51.346;12.372;2023-02-28T18:06:02;1.30;78.80
36372;DHT22;22398;51.346;12.372;2023-02-28T18:11:06;1.30;79.30
36372;DHT22;22398;51.346;12.372;2023-02-28T18:16:20;1.20;79.50
36372;DHT22;22398;51.346;12.372;2023-02-28T18:21:25;1.20;80.00
36372;DHT22;22398;51.346;12.372;2023-02-28T18:26:29;1.10;80.30
36372;DHT22;22398;51.346;12.372;2023-02-28T18:31:33;0.90;80.50
36372;DHT22;22398;51.346;12.372;2023-02-28T18:36:38;0.90;81.10
36372;DHT22;22398;51.346;12.372;2023-02-28T18:41:43;0.80;81.70
36372;DHT22;22398;51.346;12.372;2023-02-28T18:46:47;0.80;82.10
36372;DHT22;22398;51.346;12.372;2023-02-28T18:51:52;0.70;82.40
36372;DHT22;22398;51.346;12.372;2023-02-28T18:56:56;0.60;82.90
36372;DHT22;22398;51.346;12.372;2023-02-28T19:01:59;0.50;83.40
36372;DHT22;22398;51.346;12.372;2023-02-28T19:07:05;0.60;84.10
36372;DHT22;22398;51.346;12.372;2023-02-28T19:12:08;0.50;84.30
36372;DHT22;22398;51.346;12.372;2023-02-28T19:17:12;0.40;84.60
36372;DHT22;22398;51.346;12.372;2023-02-28T19:22:18;0.40;85.10
36372;DHT22;22398;51.346;12.372;2023-02-28T19:27:21;0.20;85.20
36372;DHT22;22398;51.346;12.372;2023-02-28T19:32:25;0.10;86.20
36372;DHT22;22398;51.346;12.372;2023-02-28T19:37:30;0.30;87.20
36372;DHT22;22398;51.346;12.372;2023-02-28T19:42:34;0.40;87.70
36372;DHT22;22398;51.346;12.372;2023-02-28T19:47:37;0.40;88.40
36372;DHT22;22398;51.346;12.372;2023-02-28T19:52:43;0.40;88.90
36372;DHT22;22398;51.346;12.372;2023-02-28T19:57:46;0.40;88.90
36372;DHT22;22398;51.346;12.372;2023-02-28T20:02:50;0.40;89.20
36372;DHT22;22398;51.346;12.372;2023-02-28T20:07:55;0.30;89.30
36372;DHT22;22398;51.346;12.372;2023-02-28T20:12:58;0.10;89.40
36372;DHT22;22398;51.346;12.372;2023-02-28T20:18:02;0.00;90.10
36372;DHT22;22398;51.346;12.372;2023-02-28T20:23:07;0.00;90.10
36372;DHT22;22398;51.346;12.372;2023-02-28T20:28:11;-0.10;90.30
36372;DHT22;22398;51.346;12.372;2023-02-28T20:33:14;0.00;90.30
36372;DHT22;22398;51.346;12.372;2023-02-28T20:38:19;0.00;90.40
36372;DHT22;22398;51.346;12.372;2023-02-28T20:43:23;-0.10;90.60
36372;DHT22;22398;51.346;12.372;2023-02-28T20:48:27;-0.20;90.60
36372;DHT22;22398;51.346;12.372;2023-02-28T20:53:33;-0.40;90.50
36372;DHT22;22398;51.346;12.372;2023-02-28T20:58:37;-0.50;90.80
36372;DHT22;22398;51.346;12.372;2023-02-28T21:03:41;-0.50;91.20
36372;DHT22;22398;51.346;12.372;2023-02-28T21:08:45;-0.40;91.40
36372;DHT22;22398;51.346;12.372;2023-02-28T21:13:49;-0.40;91.30
36372;DHT22;22398;51.346;12.372;2023-02-28T21:18:53;-0.30;91.60
36372;DHT22;22398;51.346;12.372;2023-02-28T21:23:58;-0.30;91.60
36372;DHT22;22398;51.346;12.372;2023-02-28T21:29:02;-0.40;91.70
36372;DHT22;22398;51.346;12.372;2023-02-28T21:34:07;-0.30;91.90
36372;DHT22;22398;51.346;12.372;2023-02-28T21:39:13;-0.40;91.80
36372;DHT22;22398;51.346;12.372;2023-02-28T21:44:16;-0.50;92.00
36372;DHT22;22398;51.346;12.372;2023-02-28T21:49:20;-0.60;92.20
36372;DHT22;22398;51.346;12.372;2023-02-28T21:54:24;-0.70;92.30
36372;DHT22;22398;51.346;12.372;2023-02-28T21:59:28;-0.80;92.40
36372;DHT22;22398;51.346;12.372;2023-02-28T22:04:31;-0.80;92.70
36372;DHT22;22398;51.346;12.372;2023-02-28T22:09:36;-0.90;92.60
36372;DHT22;22398;51.346;12.372;2023-02-28T22:14:39;-0.90;92.70
36372;DHT22;22398;51.346;12.372;2023-02-28T22:19:43;-1.00;92.90
36372;DHT22;22398;51.346;12.372;2023-02-28T22:24:47;-1.10;93.00
36372;DHT22;22398;51.346;12.372;2023-02-28T22:29:53;-1.20;93.00
36372;DHT22;22398;51.346;12.372;2023-02-28T22:34:57;-1.40;93.10
36372;DHT22;22398;51.346;12.372;2023-02-28T22:40:02;-1.40;93.50
36372;DHT22;22398;51.346;12.372;2023-02-28T22:45:06;-1.30;93.60
36372;DHT22;22398;51.346;12.372;2023-02-28T22:50:10;-1.40;93.60
36372;DHT22;22398;51.346;12.372;2023-02-28T22:55:15;-1.50;93.90
36372;DHT22;22398;51.346;12.372;2023-02-28T23:00:19;-1.30;94.30
36372;DHT22;22398;51.346;12.372;2023-02-28T23:05:23;-1.20;94.40
36372;DHT22;22398;51.346;12.372;2023-02-28T23:10:28;-1.10;94.20
36372;DHT22;22398;51.346;12.372;2023-02-28T23:15:32;-1.20;94.20
36372;DHT22;22398;51.346;12.372;2023-02-28T23:20:35;-1.10;94.40
36372;DHT22;22398;51.346;12.372;2023-02-28T23:25:41;-1.10;94.50
36372;DHT22;22398;51.346;12.372;2023-02-28T23:30:44;-1.00;94.70
36372;DHT22;22398;51.346;12.372;2023-02-28T23:35:48;-0.90;94.70
36372;DHT22;22398;51.346;12.372;2023-02-28T23:40:53;-0.90;94.80
36372;DHT22;22398;51.346;12.372;2023-02-28T23:45:57;-0.90;94.90
36372;DHT22;22398;51.346;12.372;2023-02-28T23:51:01;-0.90;94.80
36372;DHT22;22398;51.346;12.372;2023-02-28T23:56:08;-0.90;94.80
